createdAt,value
2018-07-04T04:11:13.245Z,66.6
2018-07-04T04:11:33.378Z,67.3
2018-07-04T04:11:53.544Z,67.5
2018-07-04T04:12:13.705Z,67.4
2018-07-04T04:12:33.857Z,66.9
2018-07-04T04:12:54.020Z,67.7
2018-07-04T04:13:14.188Z,67.4
2018-07-04T04:42:33.585Z,65.7
2018-07-04T04:42:53.744Z,66.2
2018-07-04T04:43:13.893Z,66.1
2018-07-04T04:43:34.060Z,65.8
2018-07-04T04:43:54.222Z,66.2
2018-07-04T04:44:14.369Z,65.8
2018-07-04T04:44:34.525Z,66.6
2018-07-04T04:44:54.683Z,65.9
2018-07-04T04:45:14.855Z,65.6
2018-07-04T04:45:35.005Z,65.6
2018-07-04T04:45:55.158Z,65.6
2018-07-04T05:05:31.619Z,65.6
2018-07-04T05:05:51.811Z,65.8
2018-07-04T05:06:11.964Z,65.6
2018-07-04T05:06:32.137Z,65.6
2018-07-04T05:06:52.289Z,65.4
2018-07-04T05:07:12.445Z,65.4
2018-07-04T05:07:32.598Z,65.5
2018-07-04T05:07:52.793Z,65.3
2018-07-04T05:08:12.988Z,65.6
2018-07-04T05:08:33.133Z,65.4
2018-07-04T05:08:53.279Z,66
2018-07-04T05:22:29.359Z,63.9
2018-07-04T05:22:49.511Z,64
2018-07-04T05:23:09.655Z,64.5
2018-07-04T05:23:29.800Z,64
2018-07-04T05:23:49.947Z,64.1
2018-07-04T05:24:10.174Z,64.5
2018-07-04T05:24:30.334Z,64.6
2018-07-04T05:24:50.523Z,64.8
2018-07-04T05:30:15.701Z,63.7
2018-07-04T05:30:35.857Z,63.6
2018-07-04T05:30:56.029Z,63.9
2018-07-04T05:34:18.179Z,64.8
2018-07-04T05:34:38.401Z,64.3
2018-07-04T05:34:58.599Z,64.5
2018-07-04T05:37:59.391Z,64.3
2018-07-04T05:39:33.050Z,63.8
2018-07-04T05:41:25.421Z,63.9
2018-07-04T05:41:45.593Z,63.6
2018-07-04T05:43:22.166Z,64.1
2018-07-04T05:45:25.254Z,63.8
2018-07-04T05:45:45.464Z,63.5
2018-07-04T05:46:05.660Z,63.5
2018-07-04T05:46:25.813Z,63.5
2018-07-04T05:48:12.469Z,63.5
2018-07-04T05:48:32.625Z,63.5
2018-07-04T05:48:52.915Z,63.2
2018-07-04T05:49:13.079Z,63.4
2018-07-04T05:49:33.312Z,63.1
2018-07-04T05:49:53.496Z,63.3
2018-07-04T05:50:13.672Z,63.3
2018-07-04T05:50:33.849Z,63.3
2018-07-04T05:50:54.026Z,63.3
2018-07-04T05:51:14.278Z,63.5
2018-07-04T05:51:34.432Z,63.3
2018-07-04T05:51:54.617Z,63.5
2018-07-04T05:52:14.813Z,63.5
2018-07-04T05:53:55.791Z,63.3
2018-07-04T05:54:16.009Z,62.6
2018-07-04T05:54:36.215Z,63.1
2018-07-04T05:54:56.385Z,62.7
2018-07-04T05:55:16.542Z,62.6
2018-07-04T05:55:36.739Z,63
2018-07-04T05:55:56.897Z,62.9
2018-07-04T05:56:17.110Z,62.9
2018-07-04T05:56:37.281Z,62.6
2018-07-04T05:56:57.499Z,62.5
2018-07-04T05:57:17.672Z,63.8
2018-07-04T05:57:38.631Z,63.6
2018-07-04T05:57:58.782Z,64
2018-07-04T05:58:18.974Z,63.7
2018-07-04T05:58:39.338Z,63.3
2018-07-04T05:58:59.295Z,63.3
2018-07-04T05:59:19.480Z,63.2
2018-07-04T05:59:39.652Z,63.2
2018-07-04T05:59:59.824Z,63.5
2018-07-04T06:00:19.973Z,63.4
2018-07-04T06:00:40.178Z,63.8
2018-07-04T06:01:00.347Z,64.1
2018-07-04T06:01:20.614Z,63.5
2018-07-04T06:01:40.851Z,63.6
2018-07-04T06:02:01.005Z,63.9
2018-07-04T06:02:21.248Z,63.7
2018-07-04T06:02:41.496Z,63.5
2018-07-04T06:03:01.785Z,63.9
2018-07-04T06:03:22.026Z,63.4
2018-07-04T06:03:42.237Z,63.5
2018-07-04T06:04:02.429Z,63.1
2018-07-04T06:04:22.589Z,63.4
2018-07-04T06:04:43.577Z,63.6
2018-07-04T06:05:03.765Z,63.4
2018-07-04T06:05:23.962Z,63.1
2018-07-04T06:05:44.124Z,63.2
2018-07-04T06:06:04.295Z,63.4
2018-07-04T06:06:24.500Z,63.6
2018-07-04T06:06:44.746Z,63.7
2018-07-04T06:07:04.911Z,63.7
2018-07-04T06:07:25.081Z,63.6
2018-07-04T06:07:45.242Z,63.6
2018-07-04T06:08:05.412Z,63.9
2018-07-04T06:08:25.585Z,63.8
2018-07-04T06:08:45.796Z,63.4
2018-07-04T06:09:05.997Z,63.6
2018-07-04T06:09:26.142Z,63.7
2018-07-04T06:09:46.409Z,63.6
2018-07-04T06:10:06.587Z,63.6
2018-07-04T06:10:26.733Z,63.3
2018-07-04T06:10:46.914Z,63.6
2018-07-04T06:11:07.072Z,63.6
2018-07-04T06:11:27.246Z,63.3
2018-07-04T06:11:47.447Z,63.4
2018-07-04T06:12:07.625Z,63.3
2018-07-04T06:12:27.784Z,63.3
2018-07-04T06:12:47.962Z,63.2
2018-07-04T06:13:08.164Z,63.4
2018-07-04T06:13:28.348Z,63.5
2018-07-04T06:13:48.532Z,63.2
2018-07-04T06:14:08.697Z,63.1
2018-07-04T06:14:28.852Z,62.6
2018-07-04T06:14:49.034Z,62.6
2018-07-04T06:15:09.256Z,62.2
2018-07-04T06:15:29.364Z,62.2
2018-07-04T06:15:49.534Z,62.2
2018-07-04T06:16:09.699Z,62
2018-07-04T06:16:29.840Z,61.6
2018-07-04T06:16:51.501Z,61.3
2018-07-04T06:17:11.688Z,61.3
2018-07-04T06:17:31.837Z,61.8
2018-07-04T06:17:52.083Z,61.3
2018-07-04T06:18:12.239Z,61.6
2018-07-04T06:18:32.433Z,61.8
2018-07-04T06:18:52.578Z,62
2018-07-04T06:19:12.747Z,62.1
2018-07-04T06:19:32.925Z,62.5
2018-07-04T06:19:53.395Z,62.1
2018-07-04T06:20:13.549Z,62
2018-07-04T06:20:33.724Z,61.8
2018-07-04T06:20:53.872Z,61.9
2018-07-04T06:21:14.037Z,61.9
2018-07-04T06:21:34.199Z,61.8
2018-07-04T06:21:54.374Z,62.3
2018-07-04T06:22:14.562Z,61.6
2018-07-04T06:22:34.725Z,61.5
2018-07-04T06:22:54.907Z,61.5
2018-07-04T06:23:15.082Z,61.8
2018-07-04T06:23:35.261Z,61.8
2018-07-04T06:23:57.044Z,61.8
2018-07-04T06:24:17.232Z,61.7
2018-07-04T06:24:37.411Z,61.8
2018-07-04T06:24:57.566Z,61.6
2018-07-04T06:25:17.745Z,61.5
2018-07-04T06:25:37.994Z,61
2018-07-04T06:25:58.169Z,61.3
2018-07-04T06:26:18.310Z,61.3
2018-07-04T06:26:38.532Z,61
2018-07-04T06:26:58.688Z,60.9
2018-07-04T06:27:18.860Z,61.2
2018-07-04T06:27:39.083Z,60.9
2018-07-04T06:27:59.267Z,61
2018-07-04T06:28:19.454Z,61.1
2018-07-04T06:28:39.626Z,60.6
2018-07-04T06:28:59.813Z,60.6
2018-07-04T06:29:19.977Z,60.5
2018-07-04T06:29:40.165Z,60.5
2018-07-04T06:30:00.346Z,60.4
2018-07-04T06:30:20.501Z,60.6
2018-07-04T06:30:40.658Z,60.5
2018-07-04T06:31:00.830Z,60.6
2018-07-04T06:31:21.060Z,60.3
2018-07-04T06:31:41.218Z,61.2
2018-07-04T06:32:01.363Z,61.7
2018-07-04T06:32:21.594Z,61.7
2018-07-04T06:32:41.864Z,60.5
2018-07-04T06:33:02.025Z,60.3
2018-07-04T06:33:22.193Z,59.7
2018-07-04T06:33:42.351Z,60.1
2018-07-04T06:34:02.593Z,59.3
2018-07-04T06:34:22.755Z,59.1
2018-07-04T06:34:42.929Z,59.2
2018-07-04T06:35:03.099Z,59.5
2018-07-04T06:35:23.260Z,59.7
2018-07-04T06:35:43.461Z,59.9
2018-07-04T06:36:03.621Z,60.2
2018-07-04T06:36:23.801Z,60
2018-07-04T06:36:43.954Z,59.2
2018-07-04T06:37:04.126Z,58.5
2018-07-04T06:37:24.296Z,58.3
2018-07-04T06:37:44.463Z,58.7
2018-07-04T06:38:04.612Z,58.5
2018-07-04T06:38:24.783Z,58.4
2018-07-04T06:38:44.971Z,58.3
2018-07-04T06:39:05.239Z,58.3
2018-07-04T06:39:25.481Z,58.4
2018-07-04T06:39:45.635Z,59
2018-07-04T06:40:05.824Z,58.8
2018-07-04T06:40:26.010Z,59.2
2018-07-04T06:40:46.212Z,58.3
2018-07-04T06:41:06.369Z,57.9
2018-07-04T06:41:26.544Z,57.6
2018-07-04T06:41:46.713Z,57.9
2018-07-04T06:42:06.888Z,58.6
2018-07-04T06:42:27.049Z,58.6
2018-07-04T06:42:47.224Z,58.6
2018-07-04T06:43:07.386Z,58.3
2018-07-04T06:43:27.559Z,58.4
2018-07-04T06:43:47.731Z,58.4
2018-07-04T06:44:07.886Z,58.3
2018-07-04T06:44:28.053Z,58.4
2018-07-04T06:44:48.222Z,58.4
2018-07-04T06:45:08.415Z,58.7
2018-07-04T06:45:28.589Z,57.7
2018-07-04T06:45:48.755Z,57.8
2018-07-04T06:46:08.937Z,56.4
2018-07-04T06:46:29.139Z,56.6
2018-07-04T06:46:49.294Z,56.4
2018-07-04T06:47:09.432Z,56.3
2018-07-04T06:47:29.604Z,56.1
2018-07-04T06:47:49.779Z,56.8
2018-07-04T06:48:09.942Z,57.1
2018-07-04T06:48:30.102Z,57.2
2018-07-04T06:48:50.383Z,58
2018-07-04T06:49:10.526Z,57.3
2018-07-04T06:49:30.767Z,57.2
2018-07-04T06:49:50.958Z,56.3
2018-07-04T06:50:11.150Z,56.2
2018-07-04T06:50:31.315Z,56.1
2018-07-04T06:50:51.476Z,56.3
2018-07-04T06:51:11.765Z,56.5
2018-07-04T06:51:31.913Z,57
2018-07-04T06:51:52.092Z,56.8
2018-07-04T06:52:12.281Z,56.5
2018-07-04T06:52:32.437Z,56.3
2018-07-04T06:52:52.621Z,56.8
2018-07-04T06:53:12.775Z,57
2018-07-04T06:53:32.951Z,57.3
2018-07-04T06:53:54.026Z,56.8
2018-07-04T06:54:14.846Z,56.1
2018-07-04T06:54:36.297Z,55.3
2018-07-04T06:54:56.492Z,55.5
2018-07-04T06:55:17.911Z,55.8
2018-07-04T06:55:38.849Z,55.9
2018-07-04T06:55:59.002Z,55.9
2018-07-04T06:56:19.900Z,55.8
2018-07-04T06:56:40.057Z,55.8
2018-07-04T06:57:00.233Z,55.5
2018-07-04T06:57:20.397Z,54.7
2018-07-04T06:57:41.369Z,54.7
2018-07-04T06:58:01.571Z,54.7
2018-07-04T06:58:21.732Z,55.1
2018-07-04T06:58:41.904Z,55.1
2018-07-04T06:59:02.097Z,55.3
2018-07-04T06:59:22.266Z,55.4
2018-07-04T06:59:42.497Z,55.6
2018-07-04T07:00:03.939Z,56.3
2018-07-04T07:00:24.071Z,56.3
2018-07-04T07:00:44.218Z,55.2
2018-07-04T07:01:04.424Z,54.1
2018-07-04T07:01:24.585Z,54.4
2018-07-04T07:01:44.780Z,54.6
2018-07-04T07:02:04.936Z,54.4
2018-07-04T07:02:25.940Z,54.4
2018-07-04T07:02:46.093Z,54.4
2018-07-04T07:03:06.276Z,54.5
2018-07-04T07:03:27.199Z,54.5
2018-07-04T07:03:47.366Z,53.8
2018-07-04T07:04:07.537Z,53.9
2018-07-04T07:04:28.356Z,54.2
2018-07-04T07:04:49.237Z,54.3
2018-07-04T07:05:09.402Z,53.4
2018-07-04T07:05:30.770Z,53.9
2018-07-04T07:05:50.963Z,53.6
2018-07-04T07:06:13.769Z,53.5
2018-07-04T07:06:33.952Z,53.6
2018-07-04T07:06:54.203Z,53.5
2018-07-04T07:07:14.365Z,53.1
2018-07-04T07:07:34.514Z,53.4
2018-07-04T07:07:54.673Z,52.9
2018-07-04T07:08:15.020Z,52.9
2018-07-04T07:08:35.892Z,52.6
2018-07-04T07:08:56.152Z,52.9
2018-07-04T07:09:16.330Z,52.9
2018-07-04T07:09:37.128Z,52.7
2018-07-04T07:09:58.033Z,52.6
2018-07-04T07:10:18.185Z,53.6
2018-07-04T07:10:38.334Z,53.3
2018-07-04T07:10:58.512Z,53.5
2018-07-04T07:11:18.708Z,54
2018-07-04T07:11:38.909Z,53.9
2018-07-04T07:11:59.065Z,53.6
2018-07-04T07:12:20.079Z,53.2
2018-07-04T07:12:40.266Z,53.2
2018-07-04T07:13:00.416Z,53.3
2018-07-04T07:13:20.613Z,53.3
2018-07-04T07:13:40.758Z,53.1
2018-07-04T07:14:00.916Z,53.6
2018-07-04T07:14:21.093Z,53.5
2018-07-04T07:14:41.325Z,53.1
2018-07-04T07:15:02.041Z,53
2018-07-04T07:15:22.262Z,52.6
2018-07-04T07:15:42.473Z,50.9
2018-07-04T07:16:02.637Z,50.7
2018-07-04T07:16:22.850Z,50.2
2018-07-04T07:16:43.746Z,50.7
2018-07-04T07:17:04.025Z,51.1
2018-07-04T07:17:24.200Z,51.3
2018-07-04T07:17:44.450Z,51.5
2018-07-04T07:18:04.660Z,51.1
2018-07-04T07:18:26.602Z,51.2
2018-07-04T07:18:46.795Z,51.1
2018-07-04T07:19:06.945Z,50.7
2018-07-04T07:19:27.121Z,50.4
2018-07-04T07:19:48.544Z,50.3
2018-07-04T07:20:08.708Z,49.8
2018-07-04T07:20:28.854Z,49.8
2018-07-04T07:20:49.029Z,49.9
2018-07-04T07:21:09.217Z,49.9
2018-07-04T07:21:29.358Z,50.4
2018-07-04T07:21:50.200Z,50.6
2018-07-04T07:22:11.610Z,50.6
2018-07-04T07:22:31.769Z,50.3
2018-07-04T07:22:52.641Z,49.6
2018-07-04T07:23:12.800Z,49.5
2018-07-04T07:23:34.081Z,49.7
2018-07-04T07:23:54.757Z,49.8
2018-07-04T07:24:14.921Z,50.2
2018-07-04T07:24:37.319Z,50.8
2018-07-04T07:24:57.563Z,50.6
2018-07-04T07:25:17.751Z,50.6
2018-07-04T07:25:37.905Z,50.7
2018-07-04T07:25:58.045Z,50.9
2018-07-04T07:26:18.210Z,50.9
2018-07-04T07:26:38.363Z,49.7
2018-07-04T07:26:58.509Z,49.3
2018-07-04T07:27:18.661Z,47.1
2018-07-04T07:27:38.917Z,46.9
2018-07-04T07:27:58.999Z,47.4
2018-07-04T07:28:19.161Z,47
2018-07-04T07:28:39.328Z,45.9
2018-07-04T07:28:59.496Z,45.2
2018-07-04T07:29:19.631Z,45
2018-07-04T07:29:39.822Z,45.9
2018-07-04T07:29:59.985Z,45.9
2018-07-04T07:30:21.421Z,46.1
2018-07-04T07:30:41.586Z,46
2018-07-04T07:31:01.797Z,46
2018-07-04T07:31:21.994Z,46.2
2018-07-04T07:31:42.152Z,46.2
2018-07-04T07:32:02.389Z,46
2018-07-04T07:32:22.618Z,45.8
2018-07-04T07:32:42.848Z,46
2018-07-04T07:33:03.020Z,45.8
2018-07-04T07:33:23.915Z,46.1
2018-07-04T07:33:44.082Z,46.2
2018-07-04T07:34:05.053Z,46.1
2018-07-04T07:34:25.222Z,46
2018-07-04T07:34:45.381Z,46
2018-07-04T07:35:05.555Z,45.9
2018-07-04T07:35:25.736Z,46
2018-07-04T07:35:46.449Z,45.9
2018-07-04T07:36:06.640Z,45.7
2018-07-04T07:36:26.864Z,45.9
2018-07-04T07:36:47.090Z,46.1
2018-07-04T07:37:07.299Z,44.8
2018-07-04T07:37:27.481Z,44.3
2018-07-04T07:37:48.271Z,43.9
2018-07-04T07:38:08.515Z,43.9
2018-07-04T07:38:28.718Z,43.9
2018-07-04T07:38:48.929Z,43.8
2018-07-04T07:39:09.110Z,44.1
2018-07-04T07:39:29.265Z,44.7
2018-07-04T07:39:49.459Z,44.1
2018-07-04T07:40:09.705Z,43.2
2018-07-04T07:40:30.481Z,42.8
2018-07-04T07:40:50.655Z,43.5
2018-07-04T07:41:10.797Z,43.3
2018-07-04T07:41:30.957Z,42.8
2018-07-04T07:41:51.212Z,43.2
2018-07-04T07:42:11.503Z,43.3
2018-07-04T07:42:31.678Z,43.5
2018-07-04T07:42:51.840Z,42.9
2018-07-04T07:43:12.085Z,42.5
2018-07-04T07:43:32.279Z,42.2
2018-07-04T07:43:52.515Z,42.2
2018-07-04T07:44:12.668Z,42.6
2018-07-04T07:44:32.870Z,42.5
2018-07-04T07:44:53.090Z,42.5
2018-07-04T07:45:13.917Z,42.5
2018-07-04T07:45:34.801Z,42.9
2018-07-04T07:45:55.800Z,43.1
2018-07-04T07:46:15.987Z,43.3
2018-07-04T07:46:36.285Z,42.9
2018-07-04T07:46:56.473Z,42.7
2018-07-04T07:47:16.667Z,42.9
2018-07-04T07:47:36.851Z,41.1
2018-07-04T07:47:57.002Z,39.9
2018-07-04T07:48:17.178Z,39.9
2018-07-04T07:48:37.995Z,38.7
2018-07-04T07:48:58.180Z,38.3
2018-07-04T07:49:18.353Z,38.3
2018-07-04T07:49:39.461Z,38.1
2018-07-04T07:49:59.635Z,38.2
2018-07-04T07:50:19.800Z,38.4
2018-07-04T07:50:39.967Z,38.7
2018-07-04T07:51:00.149Z,38.8
2018-07-04T07:51:20.392Z,39.3
2018-07-04T07:51:41.976Z,38.9
2018-07-04T07:52:02.150Z,38.7
2018-07-04T07:52:22.390Z,38.9
2018-07-04T07:52:42.540Z,39.5
2018-07-04T07:53:02.745Z,40
2018-07-04T07:53:22.964Z,40.1
2018-07-04T07:53:43.172Z,40.1
2018-07-04T07:54:03.383Z,39.8
2018-07-04T07:54:23.542Z,39.5
2018-07-04T07:54:43.715Z,38.8
2018-07-04T07:55:03.959Z,38.4
2018-07-04T07:55:24.150Z,38.7
2018-07-04T07:55:44.313Z,38.9
2018-07-04T07:56:04.457Z,39.1
2018-07-04T07:56:24.688Z,38.2
2018-07-04T07:56:44.928Z,38.3
2018-07-04T07:57:05.079Z,39.1
2018-07-04T07:57:25.311Z,39.1
2018-07-04T07:57:45.497Z,39.2
2018-07-04T07:58:06.338Z,38.9
2018-07-04T07:58:26.519Z,38.9
2018-07-04T07:58:46.709Z,38.8
2018-07-04T07:59:08.314Z,38.6
2018-07-04T07:59:28.479Z,37.1
2018-07-04T07:59:48.654Z,36.3
2018-07-04T08:00:08.820Z,36.5
2018-07-04T08:00:29.014Z,36.7
2018-07-04T08:00:49.281Z,36.8
2018-07-04T08:01:09.472Z,36.7
2018-07-04T08:01:29.678Z,36.9
2018-07-04T08:01:49.913Z,37.7
2018-07-04T08:02:10.085Z,37.5
2018-07-04T08:02:30.238Z,36.5
2018-07-04T08:02:50.402Z,36.9
2018-07-04T08:03:10.564Z,36.8
2018-07-04T08:03:30.809Z,37.2
2018-07-04T08:03:51.074Z,37.1
2018-07-04T08:04:11.260Z,37.3
2018-07-04T08:04:31.458Z,35.9
2018-07-04T08:04:51.630Z,35.5
2018-07-04T08:05:12.297Z,35.6
2018-07-04T08:05:32.452Z,35.7
2018-07-04T08:05:53.544Z,36.1
2018-07-04T08:06:13.810Z,35.8
2018-07-04T08:06:35.913Z,36.7
2018-07-04T08:06:57.416Z,36.7
2018-07-04T08:07:17.581Z,35.7
2018-07-04T08:07:37.755Z,35.2
2018-07-04T08:07:57.927Z,35.6
2018-07-04T08:08:18.117Z,35.5
2018-07-04T08:08:39.506Z,35.4
2018-07-04T08:09:02.548Z,36.1
2018-07-04T08:09:22.717Z,36
2018-07-04T08:09:42.875Z,35.7
2018-07-04T08:10:03.041Z,35.7
2018-07-04T08:10:23.189Z,35.8
2018-07-04T08:10:43.930Z,36
2018-07-04T08:11:04.096Z,35.2
2018-07-04T08:11:24.251Z,34.9
2018-07-04T08:11:44.526Z,35
2018-07-04T08:12:04.672Z,35.6
2018-07-04T08:12:24.804Z,35.8
2018-07-04T08:12:45.020Z,34.1
2018-07-04T08:13:05.164Z,34.1
2018-07-04T08:13:25.317Z,34.5
2018-07-04T08:13:45.497Z,34.6
2018-07-04T08:14:06.395Z,34.5
2018-07-04T08:14:26.608Z,34.3
2018-07-04T08:14:47.414Z,34.4
2018-07-04T08:15:07.575Z,34.6
2018-07-04T08:15:27.754Z,34.4
2018-07-04T08:15:47.966Z,33.9
2018-07-04T08:16:08.899Z,33.1
2018-07-04T08:16:29.055Z,34.4
2018-07-04T08:16:49.200Z,34.7
2018-07-04T08:17:09.429Z,34.7
2018-07-04T08:17:29.636Z,34.3
2018-07-04T08:17:49.809Z,34.3
2018-07-04T08:18:09.961Z,34.1
2018-07-04T08:18:31.338Z,34.2
2018-07-04T08:18:51.538Z,33
2018-07-04T08:19:11.768Z,33.2
2018-07-04T08:19:31.951Z,33.6
2018-07-04T08:19:52.777Z,33.4
2018-07-04T08:20:12.984Z,33.3
2018-07-04T08:20:33.149Z,33
2018-07-04T08:20:53.314Z,32.8
2018-07-04T08:21:13.482Z,32
2018-07-04T08:21:33.627Z,31.4
2018-07-04T08:21:53.781Z,31.4
2018-07-04T08:22:13.962Z,31.4
2018-07-04T08:22:34.128Z,31.4
2018-07-04T08:22:54.307Z,32
2018-07-04T08:23:14.468Z,32.5
2018-07-04T08:23:34.652Z,32.5
2018-07-04T08:23:54.794Z,32.9
2018-07-04T08:24:14.960Z,32.6
2018-07-04T08:24:35.147Z,33
2018-07-04T08:24:56.042Z,32.7
2018-07-04T08:25:16.207Z,32
2018-07-04T08:25:36.413Z,33.1
2018-07-04T08:25:56.552Z,32.8
2018-07-04T08:26:16.793Z,32.2
2018-07-04T08:26:36.888Z,32.1
2018-07-04T08:26:57.057Z,31.9
2018-07-04T08:27:17.214Z,31.9
2018-07-04T08:27:38.034Z,31.2
2018-07-04T08:27:58.188Z,31.3
2018-07-04T08:28:18.340Z,31.6
2018-07-04T08:28:38.519Z,31.8
2018-07-04T08:28:58.669Z,31.5
2018-07-04T08:29:18.840Z,30.9
2018-07-04T08:29:39.010Z,30
2018-07-04T08:29:59.171Z,29.9
2018-07-04T08:30:19.360Z,29.8
2018-07-04T08:30:39.532Z,29.8
2018-07-04T08:30:59.708Z,30.6
2018-07-04T08:31:19.881Z,30
2018-07-04T08:31:40.043Z,29.4
2018-07-04T08:32:01.039Z,29.9
2018-07-04T08:32:22.324Z,29.7
2018-07-04T08:32:42.518Z,29
2018-07-04T08:33:02.683Z,28.5
2018-07-04T08:33:23.091Z,28.9
2018-07-04T08:33:43.520Z,28.8
2018-07-04T08:34:03.764Z,29
2018-07-04T08:34:23.990Z,29.4
2018-07-04T08:34:44.160Z,29.8
2018-07-04T08:35:04.926Z,29.9
2018-07-04T08:35:25.915Z,29
2018-07-04T08:35:47.070Z,28.8
2018-07-04T08:36:07.232Z,28.6
2018-07-04T08:36:27.429Z,28.8
2018-07-04T08:36:47.636Z,28.8
2018-07-04T08:37:08.548Z,28.8
2018-07-04T08:37:28.717Z,29.1
2018-07-04T08:37:48.857Z,29
2018-07-04T08:38:09.030Z,29.1
2018-07-04T08:38:29.178Z,29.1
2018-07-04T08:38:49.335Z,28.8
2018-07-04T08:39:09.521Z,29
2018-07-04T08:39:29.680Z,29.6
2018-07-04T08:39:49.867Z,28.5
2018-07-04T08:40:10.010Z,27.8
2018-07-04T08:40:30.185Z,27.5
2018-07-04T08:40:50.350Z,25.8
2018-07-04T08:41:10.529Z,25.8
2018-07-04T08:41:30.683Z,25.3
2018-07-04T08:41:50.905Z,25.7
2018-07-04T08:42:12.593Z,26.1
2018-07-04T08:42:33.545Z,26.4
2018-07-04T08:42:53.699Z,26.8
2018-07-04T08:43:15.364Z,26.5
2018-07-04T08:43:35.522Z,26.8
2018-07-04T08:43:56.588Z,27
2018-07-04T08:44:16.725Z,27.1
2018-07-04T08:44:36.971Z,27
2018-07-04T08:44:57.102Z,26.6
2018-07-04T08:45:17.252Z,26.4
2018-07-04T08:45:37.408Z,26.7
2018-07-04T08:45:57.552Z,26.7
2018-07-04T08:46:17.731Z,26.6
2018-07-04T08:46:37.896Z,26.4
2018-07-04T08:46:58.079Z,26.6
2018-07-04T08:47:18.847Z,27
2018-07-04T08:47:38.996Z,26.8
2018-07-04T08:47:59.197Z,26.6
2018-07-04T08:48:19.853Z,26.7
2018-07-04T08:48:40.065Z,27.4
2018-07-04T08:49:00.224Z,27.6
2018-07-04T08:49:20.362Z,27.7
2018-07-04T08:49:41.058Z,28.2
2018-07-04T08:50:01.219Z,28.6
2018-07-04T08:50:21.384Z,28.9
2018-07-04T08:50:41.670Z,28.3
2018-07-04T08:51:02.508Z,27.7
2018-07-04T08:51:22.712Z,27.4
2018-07-04T08:51:42.891Z,27.2
2018-07-04T08:52:02.993Z,27.5
2018-07-04T08:52:23.184Z,27.7
2018-07-04T08:52:43.402Z,28.6
2018-07-04T08:53:04.155Z,29.3
2018-07-04T08:53:24.349Z,30.1
2018-07-04T08:53:44.624Z,29.3
2018-07-04T08:54:04.927Z,29.2
2018-07-04T08:54:26.160Z,29
2018-07-04T08:54:46.340Z,28.8
2018-07-04T08:55:06.482Z,27.7
2018-07-04T08:55:26.687Z,25.8
2018-07-04T08:55:46.854Z,25
2018-07-04T08:56:07.061Z,25.3
2018-07-04T08:56:27.220Z,25.2
2018-07-04T08:56:47.437Z,26.3
2018-07-04T08:57:07.585Z,26.8
2018-07-04T08:57:27.735Z,26
2018-07-04T08:57:48.436Z,26.3
2018-07-04T08:58:10.231Z,26.7
2018-07-04T08:58:30.536Z,26.5
2018-07-04T08:58:51.687Z,25.9
2018-07-04T08:59:11.866Z,26.1
2018-07-04T08:59:32.019Z,25.6
2018-07-04T08:59:52.157Z,25.3
2018-07-04T09:00:12.369Z,25.4
2018-07-04T09:00:32.531Z,25.6
2018-07-04T09:00:52.683Z,25.5
2018-07-04T09:01:12.954Z,25.3
2018-07-04T09:01:33.178Z,24.6
2018-07-04T09:01:53.346Z,24.7
2018-07-04T09:02:13.508Z,24.2
2018-07-04T09:02:33.664Z,24.1
2018-07-04T09:02:53.831Z,23.6
2018-07-04T09:03:13.975Z,24.2
2018-07-04T09:03:34.139Z,23.9
2018-07-04T09:03:54.306Z,24.4
2018-07-04T09:04:14.509Z,24.5
2018-07-04T09:04:34.708Z,25.3
2018-07-04T09:04:54.851Z,25.4
2018-07-04T09:05:15.654Z,25.4
2018-07-04T09:05:35.841Z,24.9
2018-07-04T09:05:56.579Z,26
2018-07-04T09:06:18.135Z,26.1
2018-07-04T09:06:39.834Z,26
2018-07-04T09:06:59.994Z,25.9
2018-07-04T09:07:39.754Z,26.4
2018-07-04T09:07:59.939Z,25.8
2018-07-04T09:08:20.112Z,25.7
2018-07-04T09:08:40.290Z,24.9
2018-07-04T09:09:00.459Z,25.3
2018-07-04T09:09:20.605Z,24.9
2018-07-04T09:09:40.807Z,24
2018-07-04T09:10:01.044Z,24.5
2018-07-04T09:10:21.237Z,24.6
2018-07-04T09:10:41.438Z,23.9
2018-07-04T09:11:01.675Z,24.6
2018-07-04T09:11:21.899Z,25.6
2018-07-04T09:11:42.180Z,25.7
2018-07-04T09:12:03.707Z,25.5
2018-07-04T09:12:23.929Z,25.3
2018-07-04T09:12:44.234Z,25
2018-07-04T09:13:04.442Z,25.6
2018-07-04T09:13:24.625Z,25.6
2018-07-04T09:13:44.769Z,24.5
2018-07-04T09:14:04.969Z,23.8
2018-07-04T09:14:25.173Z,24.3
2018-07-04T09:14:45.367Z,24.9
2018-07-04T09:15:05.538Z,24.9
2018-07-04T09:15:25.691Z,25.4
2018-07-04T09:15:45.877Z,26.4
2018-07-04T09:16:06.128Z,26.1
2018-07-04T09:16:26.341Z,26.7
2018-07-04T09:16:46.537Z,26.1
2018-07-04T09:17:07.506Z,26.1
2018-07-04T09:17:27.671Z,26.1
2018-07-04T09:17:48.610Z,25.8
2018-07-04T09:18:08.815Z,25.5
2018-07-04T09:18:29.005Z,26
2018-07-04T09:18:49.286Z,26.5
2018-07-04T09:19:09.489Z,26.6
2018-07-04T09:19:29.717Z,26.8
2018-07-04T09:19:50.965Z,27.1
2018-07-04T09:20:11.247Z,27.1
2018-07-04T09:20:31.455Z,27.2
2018-07-04T09:20:52.300Z,26.6
2018-07-04T09:21:12.489Z,26.4
2018-07-04T09:21:32.676Z,26
2018-07-04T09:21:53.013Z,25.6
2018-07-04T09:22:13.159Z,25.2
2018-07-04T09:22:33.377Z,25.1
2018-07-04T09:22:53.683Z,25
2018-07-04T09:23:13.932Z,23.8
2018-07-04T09:23:34.065Z,24.1
2018-07-04T09:23:54.204Z,24.2
2018-07-04T09:24:14.512Z,24.2
2018-07-04T09:24:34.725Z,24.6
2018-07-04T09:24:54.878Z,24.4
2018-07-04T09:25:15.042Z,24.2
2018-07-04T09:25:35.206Z,24
2018-07-04T09:25:55.373Z,24.9
2018-07-04T09:26:16.322Z,25.5
2018-07-04T09:26:36.479Z,25.7
2018-07-04T09:26:56.633Z,25.8
2018-07-04T09:27:16.791Z,25.8
2018-07-04T09:27:36.976Z,25.3
2018-07-04T09:27:57.120Z,24.7
2018-07-04T09:28:17.281Z,24.2
2018-07-04T09:28:37.476Z,23.9
2018-07-04T09:28:57.691Z,24.7
2018-07-04T09:29:17.858Z,25
2018-07-04T09:29:38.061Z,24.9
2018-07-04T09:29:58.977Z,24.8
2018-07-04T09:30:19.176Z,24.5
2018-07-04T09:30:39.430Z,24.5
2018-07-04T09:30:59.587Z,25
2018-07-04T09:31:19.786Z,25.4
2018-07-04T09:31:39.990Z,25.7
2018-07-04T09:32:00.173Z,25.4
2018-07-04T09:32:20.324Z,25
2018-07-04T09:32:40.541Z,25.8
2018-07-04T09:33:00.704Z,24.9
2018-07-04T09:33:20.933Z,25
2018-07-04T09:33:41.100Z,23.2
2018-07-04T09:34:01.278Z,23.1
2018-07-04T09:34:21.466Z,23.1
2018-07-04T09:34:41.684Z,22.2
2018-07-04T09:35:01.949Z,22.4
2018-07-04T09:35:22.126Z,21.7
2018-07-04T09:35:42.453Z,21.7
2018-07-04T09:36:02.684Z,21.8
2018-07-04T09:36:22.880Z,21.8
2018-07-04T09:36:43.085Z,21.6
2018-07-04T09:37:03.296Z,22.4
2018-07-04T09:37:23.517Z,22.4
2018-07-04T09:37:43.674Z,23.1
2018-07-04T09:38:03.795Z,22.7
2018-07-04T09:38:24.056Z,23
2018-07-04T09:38:44.354Z,23
2018-07-04T09:39:04.534Z,22.9
2018-07-04T09:39:24.704Z,23
2018-07-04T09:39:45.010Z,23.8
2018-07-04T09:40:05.261Z,23.7
2018-07-04T09:40:25.552Z,23.8
2018-07-04T09:40:45.798Z,23.6
2018-07-04T09:41:06.875Z,24.2
2018-07-04T09:41:27.906Z,23.5
2018-07-04T09:41:48.167Z,23.2
2018-07-04T09:42:08.443Z,23.1
2018-07-04T09:42:29.847Z,23
2018-07-04T09:42:50.200Z,23.1
2018-07-04T09:43:10.400Z,22.5
2018-07-04T09:43:30.603Z,22.4
2018-07-04T09:43:50.948Z,22.4
2018-07-04T09:44:11.131Z,22.6
2018-07-04T09:44:31.322Z,22.6
2018-07-04T09:44:53.079Z,23.1
2018-07-04T09:45:13.903Z,22.9
2018-07-04T09:45:34.165Z,22.8
2018-07-04T09:45:54.394Z,22.9
2018-07-04T09:46:14.586Z,23.1
2018-07-04T09:46:34.781Z,23.1
2018-07-04T09:46:55.005Z,23.1
2018-07-04T09:47:15.244Z,22.5
2018-07-04T09:47:35.450Z,22.3
2018-07-04T09:47:55.656Z,22.8
2018-07-04T09:48:15.836Z,23
2018-07-04T09:48:36.075Z,23.9
2018-07-04T09:48:56.253Z,23.4
2018-07-04T09:49:16.430Z,22.5
2018-07-04T09:49:36.872Z,22.7
2018-07-04T09:49:57.092Z,22.9
2018-07-04T09:50:17.299Z,23.7
2018-07-04T09:50:37.456Z,24
2018-07-04T09:50:57.601Z,23.7
2018-07-04T09:51:17.852Z,23.4
2018-07-04T09:51:39.557Z,23.6
2018-07-04T09:51:59.739Z,23.3
2018-07-04T09:52:19.921Z,23.4
2018-07-04T09:52:40.136Z,23.9
2018-07-04T09:53:00.317Z,23.8
2018-07-04T09:53:20.506Z,23.1
2018-07-04T09:53:40.663Z,22.1
2018-07-04T09:54:00.820Z,21.6
2018-07-04T09:54:21.929Z,21.6
2018-07-04T09:54:42.076Z,21.9
2018-07-04T09:55:02.248Z,22.3
2018-07-04T09:55:23.035Z,22.7
2018-07-04T09:55:43.317Z,22.3
2018-07-04T09:56:03.468Z,22
2018-07-04T09:56:23.708Z,22.5
2018-07-04T09:56:43.932Z,22.5
2018-07-04T09:57:04.300Z,23.5
2018-07-04T09:57:24.501Z,24
2018-07-04T09:57:44.702Z,23.2
2018-07-04T09:58:06.111Z,22.1
2018-07-04T09:58:26.288Z,22.1
2018-07-04T09:58:46.651Z,22.4
2018-07-04T09:59:07.023Z,22.4
2018-07-04T09:59:27.221Z,22
2018-07-04T09:59:47.406Z,21.8
2018-07-04T10:00:07.674Z,21.4
2018-07-04T10:00:28.429Z,21.7
2018-07-04T10:00:48.647Z,22.1
2018-07-04T10:01:08.853Z,22.7
2018-07-04T10:01:29.627Z,22.7
2018-07-04T10:01:49.949Z,22.5
2018-07-04T10:02:10.104Z,22.4
2018-07-04T10:02:30.284Z,22.6
2018-07-04T10:02:50.440Z,21.4
2018-07-04T10:03:10.688Z,21.4
2018-07-04T10:03:30.847Z,21.4
2018-07-04T10:03:51.881Z,21.5
2018-07-04T10:04:12.066Z,21.6